Time;durP1;ratioP1;P1;durP2;ratioP2;P2;SDS_P1;SDS_P2;PMS_P1;PMS_P2;Temp;Humidity;BMP_temperature;BMP_pressure;BME280_temperature;BME280_humidity;BME280_pressure;Samples;Min_cycle;Max_cycle;Signal;HPM_P1;HPM_P2
2024/04/21 00:00:08;;;;;;;3.67;1.77;;;4.00;99.90;;;;;;5327841;26;20005;-71
2024/04/21 00:02:33;;;;;;;1.65;1.30;;;4.00;99.90;;;;;;5327954;26;20012;-70
2024/04/21 00:04:59;;;;;;;3.58;1.52;;;3.90;99.90;;;;;;5325886;26;20008;-72
2024/04/21 00:07:25;;;;;;;1.80;1.38;;;4.00;99.90;;;;;;5309201;26;20012;-73
2024/04/21 00:09:50;;;;;;;1.98;1.15;;;4.00;99.90;;;;;;5326411;26;20009;-73
2024/04/21 00:12:16;;;;;;;1.60;0.90;;;4.00;99.90;;;;;;5299158;26;20005;-72
2024/04/21 00:14:41;;;;;;;1.38;1.27;;;4.00;99.90;;;;;;5325282;26;20029;-72
2024/04/21 00:17:07;;;;;;;1.88;1.00;;;4.10;99.90;;;;;;5324355;26;20013;-72
2024/04/21 00:19:32;;;;;;;1.70;1.02;;;4.00;99.90;;;;;;5321246;26;20458;-70
2024/04/21 00:21:58;;;;;;;1.05;0.77;;;4.00;99.90;;;;;;5323186;26;20049;-72
2024/04/21 00:24:28;;;;;;;2.08;1.00;;;4.10;99.90;;;;;;5303048;26;20475;-71
2024/04/21 00:26:54;;;;;;;1.27;0.80;;;4.20;99.90;;;;;;5327680;26;19997;-71
2024/04/21 00:29:20;;;;;;;1.40;0.85;;;4.20;99.90;;;;;;5326300;26;20009;-71
2024/04/21 00:31:45;;;;;;;0.50;0.50;;;4.30;99.90;;;;;;5324831;26;20012;-71
2024/04/21 00:34:11;;;;;;;1.73;0.70;;;4.30;99.90;;;;;;5343510;26;20005;-71
2024/04/21 00:36:38;;;;;;;0.70;0.70;;;4.30;99.90;;;;;;5343430;26;20442;-71
2024/04/21 00:39:04;;;;;;;2.53;0.60;;;4.30;99.90;;;;;;5338792;26;20064;-71
2024/04/21 00:41:30;;;;;;;0.75;0.60;;;4.30;99.90;;;;;;5335255;26;20009;-70
2024/04/21 00:43:55;;;;;;;1.92;0.80;;;4.30;99.90;;;;;;5319472;26;20294;-71
2024/04/21 00:46:21;;;;;;;1.20;0.50;;;4.30;99.90;;;;;;5343468;26;19993;-71
2024/04/21 00:48:47;;;;;;;1.65;0.68;;;4.30;99.90;;;;;;5343191;26;20000;-71
2024/04/21 00:51:13;;;;;;;1.75;0.70;;;4.30;99.90;;;;;;5344972;26;20032;-71
2024/04/21 00:53:39;;;;;;;1.27;0.90;;;4.30;99.90;;;;;;5332130;26;20275;-70
2024/04/21 00:56:06;;;;;;;1.55;0.90;;;4.40;99.90;;;;;;5344949;26;20012;-70
2024/04/21 00:58:32;;;;;;;1.05;0.80;;;4.30;99.90;;;;;;5343696;26;20088;-70
2024/04/21 01:01:00;;;;;;;2.58;0.90;;;4.40;99.90;;;;;;5303716;26;21361;-70
2024/04/21 01:03:25;;;;;;;2.53;1.00;;;4.40;99.90;;;;;;5322662;26;20372;-71
2024/04/21 01:05:51;;;;;;;1.20;0.70;;;4.40;99.90;;;;;;5338554;26;20072;-71
2024/04/21 01:08:17;;;;;;;2.70;0.60;;;4.40;99.90;;;;;;5344151;26;20144;-71
2024/04/21 01:10:42;;;;;;;1.30;0.55;;;4.30;99.90;;;;;;5343748;26;20333;-71
2024/04/21 01:13:11;;;;;;;2.83;0.73;;;4.30;99.90;;;;;;5341783;26;20023;-71
2024/04/21 01:15:37;;;;;;;0.77;0.60;;;4.30;99.90;;;;;;5343671;26;19996;-71
2024/04/21 01:18:04;;;;;;;2.28;0.90;;;4.30;99.90;;;;;;5342825;26;20011;-71
2024/04/21 01:20:33;;;;;;;0.43;0.30;;;4.30;99.90;;;;;;5302808;26;20009;-70
2024/04/21 01:22:58;;;;;;;1.80;0.90;;;4.30;99.90;;;;;;5329584;26;20463;-71
2024/04/21 01:25:25;;;;;;;1.88;0.95;;;4.30;99.90;;;;;;5325542;26;20002;-71
2024/04/21 01:27:51;;;;;;;1.60;0.50;;;4.30;99.90;;;;;;5342525;26;20692;-71
2024/04/21 01:30:17;;;;;;;0.55;0.40;;;4.30;99.90;;;;;;5343344;26;20012;-71
2024/04/21 01:32:42;;;;;;;1.02;0.60;;;4.40;99.90;;;;;;5346357;26;19997;-71
2024/04/21 01:35:08;;;;;;;2.60;0.50;;;4.40;99.90;;;;;;5341008;26;20023;-70
2024/04/21 01:37:35;;;;;;;1.17;0.50;;;4.40;99.90;;;;;;5291554;26;20144;-73
2024/04/21 01:40:02;;;;;;;1.13;0.50;;;4.40;99.90;;;;;;5347121;26;20011;-72
2024/04/21 01:42:27;;;;;;;2.70;0.40;;;4.30;99.90;;;;;;5346164;26;20364;-71
2024/04/21 01:44:53;;;;;;;1.15;0.50;;;4.40;99.90;;;;;;5341888;26;19993;-71
2024/04/21 01:47:19;;;;;;;1.45;0.55;;;4.40;99.90;;;;;;5327859;26;20001;-71
2024/04/21 01:49:47;;;;;;;1.70;0.50;;;4.40;99.90;;;;;;5346705;26;20611;-72
2024/04/21 01:52:12;;;;;;;5.15;0.43;;;4.40;99.90;;;;;;5302048;26;20006;-70
2024/04/21 01:54:38;;;;;;;0.65;0.30;;;4.40;99.90;;;;;;5336378;26;20001;-71
2024/04/21 01:57:03;;;;;;;0.35;0.30;;;4.40;99.90;;;;;;5346474;26;20449;-72
2024/04/21 01:59:29;;;;;;;1.10;0.30;;;4.30;99.90;;;;;;5331942;26;20012;-71
2024/04/21 02:01:55;;;;;;;1.45;0.50;;;4.30;99.90;;;;;;5327510;26;20041;-72
2024/04/21 02:04:20;;;;;;;2.05;0.65;;;4.40;99.90;;;;;;5346864;26;20005;-72
2024/04/21 02:06:46;;;;;;;2.50;0.60;;;4.40;99.90;;;;;;5326668;26;20001;-71
2024/04/21 02:09:11;;;;;;;0.88;0.40;;;4.40;99.90;;;;;;5307941;26;20012;-71
2024/04/21 02:11:37;;;;;;;1.45;0.60;;;4.40;99.90;;;;;;5345776;26;20001;-71
2024/04/21 02:14:03;;;;;;;2.65;0.40;;;4.40;99.90;;;;;;5346250;26;20458;-71
2024/04/21 02:16:28;;;;;;;1.02;0.30;;;4.40;99.90;;;;;;5347056;26;20082;-71
2024/04/21 02:18:54;;;;;;;1.15;0.60;;;4.40;99.90;;;;;;5335284;26;20346;-71
2024/04/21 02:21:20;;;;;;;0.88;0.47;;;4.40;99.90;;;;;;5321398;26;20006;-72
2024/04/21 02:23:48;;;;;;;1.77;0.63;;;4.50;99.90;;;;;;5288721;26;20005;-71
2024/04/21 02:26:14;;;;;;;1.63;0.60;;;4.50;99.90;;;;;;5329079;26;20466;-71
2024/04/21 02:28:40;;;;;;;0.68;0.40;;;4.50;99.90;;;;;;5344900;26;20079;-72
2024/04/21 02:31:05;;;;;;;1.98;0.70;;;4.40;99.90;;;;;;5328787;26;20330;-73
2024/04/21 02:33:31;;;;;;;2.90;0.45;;;4.50;99.90;;;;;;5338512;26;20059;-70
2024/04/21 02:35:57;;;;;;;1.08;0.60;;;4.50;99.90;;;;;;5344826;26;20000;-72
2024/04/21 02:38:23;;;;;;;1.88;0.60;;;4.50;99.90;;;;;;5345978;26;20033;-72
2024/04/21 02:40:49;;;;;;;1.60;0.70;;;4.50;99.90;;;;;;5342746;26;20410;-70
2024/04/21 02:43:15;;;;;;;1.88;0.68;;;4.50;99.90;;;;;;5297725;26;20015;-72
2024/04/21 02:45:40;;;;;;;1.65;0.70;;;4.50;99.90;;;;;;5339123;26;20011;-72
2024/04/21 02:48:06;;;;;;;2.92;0.80;;;4.40;99.90;;;;;;5339613;26;20001;-72
2024/04/21 02:50:34;;;;;;;1.67;1.00;;;4.40;99.90;;;;;;5329659;26;20008;-70
2024/04/21 02:53:00;;;;;;;2.67;1.00;;;4.60;99.90;;;;;;5345245;26;20074;-72
2024/04/21 02:55:26;;;;;;;3.17;1.10;;;4.60;99.90;;;;;;5346503;26;20008;-72
2024/04/21 02:57:51;;;;;;;3.67;0.93;;;4.50;99.90;;;;;;5345016;26;20318;-72
2024/04/21 03:00:17;;;;;;;3.83;1.35;;;4.40;99.90;;;;;;5274040;27;20037;-71
2024/04/21 03:02:43;;;;;;;1.70;1.30;;;4.30;99.90;;;;;;5338283;26;20000;-72
2024/04/21 03:05:09;;;;;;;7.50;2.15;;;4.30;99.90;;;;;;5328764;26;20011;-73
2024/04/21 03:07:35;;;;;;;2.20;1.58;;;4.20;99.90;;;;;;5338859;26;20329;-72
2024/04/21 03:10:01;;;;;;;3.25;1.80;;;4.10;99.90;;;;;;5315163;26;20001;-72
2024/04/21 03:12:26;;;;;;;3.95;2.17;;;4.00;99.90;;;;;;5328423;26;20012;-73
2024/04/21 03:14:52;;;;;;;4.15;2.28;;;4.00;99.90;;;;;;5345683;26;20001;-73
2024/04/21 03:17:20;;;;;;;5.88;2.78;;;3.90;99.90;;;;;;5346222;26;20019;-73
2024/04/21 03:19:49;;;;;;;5.05;2.80;;;3.80;99.90;;;;;;5307271;26;19997;-73
2024/04/21 03:22:15;;;;;;;5.20;3.45;;;3.60;99.90;;;;;;5340040;26;20420;-73
2024/04/21 03:24:41;;;;;;;6.25;3.17;;;3.50;99.90;;;;;;5344705;26;20015;-72
2024/04/21 03:27:07;;;;;;;8.98;3.65;;;3.40;99.90;;;;;;5345748;26;19997;-73
2024/04/21 03:29:32;;;;;;;4.95;3.30;;;3.30;99.90;;;;;;5344837;26;20001;-70
2024/04/21 03:31:59;;;;;;;6.50;3.30;;;3.30;99.90;;;;;;5318501;26;20501;-73
2024/04/21 03:34:25;;;;;;;6.30;3.42;;;3.20;99.90;;;;;;5316500;26;20004;-72
2024/04/21 03:36:50;;;;;;;4.72;3.45;;;3.20;99.90;;;;;;5312959;26;20079;-72
2024/04/21 03:39:17;;;;;;;3.78;3.03;;;3.10;99.90;;;;;;5345492;26;20033;-70
2024/04/21 03:41:42;;;;;;;5.43;3.60;;;3.00;99.90;;;;;;5344155;26;20083;-70
2024/04/21 03:44:08;;;;;;;5.80;3.15;;;2.90;99.90;;;;;;5345316;26;20033;-71
2024/04/21 03:46:33;;;;;;;4.97;3.05;;;2.90;99.90;;;;;;5342666;26;20005;-69
2024/04/21 03:48:59;;;;;;;4.53;2.53;;;2.80;99.90;;;;;;5345326;26;20011;-71
2024/04/21 03:51:24;;;;;;;9.68;3.40;;;2.80;99.90;;;;;;5345987;26;20048;-72
2024/04/21 03:53:50;;;;;;;3.65;2.65;;;2.70;99.90;;;;;;5311403;26;20013;-71
2024/04/21 03:56:15;;;;;;;5.57;3.15;;;2.70;99.90;;;;;;5339655;26;19997;-72
2024/04/21 03:58:41;;;;;;;2.90;2.65;;;2.70;99.90;;;;;;5344133;26;20008;-73
2024/04/21 04:01:07;;;;;;;2.83;2.53;;;2.70;99.90;;;;;;5318453;26;20391;-72
2024/04/21 04:03:32;;;;;;;6.43;2.85;;;2.70;99.90;;;;;;5344242;26;20396;-69
2024/04/21 04:05:58;;;;;;;3.25;2.95;;;2.80;99.90;;;;;;5344267;26;20000;-71
2024/04/21 04:08:23;;;;;;;3.90;2.88;;;2.70;99.90;;;;;;5345653;26;19997;-73
2024/04/21 04:10:50;;;;;;;3.70;3.22;;;2.70;99.90;;;;;;5320565;26;20005;-72
2024/04/21 04:13:17;;;;;;;6.30;3.13;;;2.80;99.90;;;;;;5342619;26;20017;-72
2024/04/21 04:15:42;;;;;;;7.18;3.42;;;2.70;99.90;;;;;;5320820;26;20009;-72
2024/04/21 04:18:08;;;;;;;8.15;5.05;;;2.70;99.90;;;;;;5325880;26;20013;-73
2024/04/21 04:20:34;;;;;;;9.20;5.50;;;2.70;99.90;;;;;;5321773;26;20086;-70
2024/04/21 04:23:00;;;;;;;5.65;4.25;;;2.70;99.90;;;;;;5307554;26;20006;-72
2024/04/21 04:25:27;;;;;;;6.07;3.78;;;2.70;99.90;;;;;;5330511;26;19997;-72
2024/04/21 04:27:52;;;;;;;6.25;3.67;;;2.80;99.90;;;;;;5297970;26;20067;-71
2024/04/21 04:30:18;;;;;;;6.60;3.78;;;2.80;99.90;;;;;;5316907;26;20446;-72
2024/04/21 04:32:45;;;;;;;6.13;3.38;;;2.80;99.90;;;;;;5308780;26;20017;-73
2024/04/21 04:35:10;;;;;;;6.00;2.95;;;2.80;99.90;;;;;;5321480;26;20425;-73
2024/04/21 04:37:37;;;;;;;3.35;2.95;;;2.80;99.90;;;;;;5308308;26;20005;-72
2024/04/21 04:40:03;;;;;;;3.58;2.90;;;2.80;99.90;;;;;;5332218;26;20001;-72
2024/04/21 04:42:29;;;;;;;4.60;3.50;;;2.70;99.90;;;;;;5336121;26;20749;-73
2024/04/21 04:44:55;;;;;;;3.47;3.00;;;2.60;99.90;;;;;;5306785;26;20017;-74
2024/04/21 04:47:20;;;;;;;5.75;2.50;;;2.60;99.90;;;;;;5328538;26;19997;-73
2024/04/21 04:49:46;;;;;;;4.47;3.20;;;2.60;99.90;;;;;;5332687;26;20005;-72
2024/04/21 04:52:11;;;;;;;5.85;3.03;;;2.60;99.90;;;;;;5333299;26;20016;-70
2024/04/21 04:54:38;;;;;;;3.92;3.25;;;2.50;99.90;;;;;;5313560;26;20015;-72
2024/04/21 04:57:04;;;;;;;4.97;2.83;;;2.50;99.90;;;;;;5342954;26;20016;-71
2024/04/21 04:59:29;;;;;;;4.72;2.72;;;2.50;99.90;;;;;;5331222;26;20001;-72
2024/04/21 05:01:55;;;;;;;4.35;3.15;;;2.40;99.90;;;;;;5299370;26;20010;-71
2024/04/21 05:04:20;;;;;;;7.05;3.17;;;2.50;99.90;;;;;;5303863;26;20006;-72
2024/04/21 05:06:46;;;;;;;8.32;2.65;;;2.60;99.90;;;;;;5323608;26;20000;-72
2024/04/21 05:09:11;;;;;;;5.53;2.63;;;2.70;99.90;;;;;;5297866;26;20000;-73
2024/04/21 05:11:37;;;;;;;4.47;2.10;;;2.70;99.90;;;;;;5342364;26;20446;-70
2024/04/21 05:14:02;;;;;;;9.05;2.65;;;2.70;99.90;;;;;;5300116;26;20000;-72
2024/04/21 05:16:28;;;;;;;5.32;1.88;;;2.70;99.90;;;;;;5343585;26;20001;-73
2024/04/21 05:18:54;;;;;;;7.13;2.40;;;2.70;99.90;;;;;;5320134;26;20666;-71
2024/04/21 05:21:19;;;;;;;4.32;1.98;;;2.60;99.90;;;;;;5300840;26;19998;-72
2024/04/21 05:23:45;;;;;;;5.63;2.25;;;2.60;99.90;;;;;;5316968;26;20450;-72
2024/04/21 05:26:10;;;;;;;8.65;2.60;;;2.50;99.90;;;;;;5335393;26;20016;-73
2024/04/21 05:28:36;;;;;;;12.25;3.35;;;2.50;99.90;;;;;;5306005;26;20333;-70
2024/04/21 05:31:02;;;;;;;13.85;2.38;;;2.60;99.90;;;;;;5320396;26;20020;-72
2024/04/21 05:33:27;;;;;;;6.93;2.05;;;2.50;99.90;;;;;;5327589;26;20015;-73
2024/04/21 05:35:54;;;;;;;8.63;2.13;;;2.60;99.90;;;;;;5333170;26;20012;-73
2024/04/21 05:38:19;;;;;;;8.88;2.45;;;2.60;99.90;;;;;;5302570;26;20005;-73
2024/04/21 05:40:45;;;;;;;8.45;2.38;;;2.50;99.90;;;;;;5341138;26;20346;-70
2024/04/21 05:43:11;;;;;;;9.45;2.10;;;2.60;99.90;;;;;;5325576;26;20012;-72
2024/04/21 05:45:36;;;;;;;4.63;1.67;;;2.60;99.90;;;;;;5333692;26;20455;-72
2024/04/21 05:48:02;;;;;;;4.68;1.58;;;2.60;99.90;;;;;;5327595;26;20799;-73
2024/04/21 05:50:28;;;;;;;4.13;1.67;;;2.60;99.90;;;;;;5343592;26;20024;-72
2024/04/21 05:52:54;;;;;;;9.88;1.85;;;2.60;99.90;;;;;;5309081;26;20009;-72
2024/04/21 05:55:19;;;;;;;10.57;2.17;;;2.60;99.90;;;;;;5305633;26;20012;-74
2024/04/21 05:57:45;;;;;;;7.95;1.98;;;2.50;99.90;;;;;;5328674;26;20462;-72
2024/04/21 06:00:11;;;;;;;7.15;2.10;;;2.60;99.90;;;;;;5325727;26;19997;-72
2024/04/21 06:02:36;;;;;;;5.57;1.50;;;2.60;99.90;;;;;;5332224;26;19998;-70
2024/04/21 06:05:03;;;;;;;5.85;1.83;;;2.60;99.90;;;;;;5323118;26;19997;-72
2024/04/21 06:07:29;;;;;;;7.70;1.98;;;2.70;99.90;;;;;;5334425;26;20007;-71
2024/04/21 06:09:55;;;;;;;10.48;3.40;;;2.80;99.90;;;;;;5299201;26;20001;-69
2024/04/21 06:12:22;;;;;;;10.00;2.05;;;2.80;99.90;;;;;;5296547;26;20012;-73
2024/04/21 06:14:48;;;;;;;7.45;2.30;;;2.90;99.90;;;;;;5303608;26;20454;-71
2024/04/21 06:17:13;;;;;;;10.13;1.90;;;3.00;99.90;;;;;;5339621;26;20000;-70
2024/04/21 06:19:39;;;;;;;7.93;1.98;;;3.10;99.90;;;;;;5323247;26;20523;-73
2024/04/21 06:22:05;;;;;;;9.98;2.05;;;3.10;99.90;;;;;;5321800;26;20088;-71
2024/04/21 06:24:31;;;;;;;4.25;1.48;;;3.20;99.90;;;;;;5311653;26;20001;-70
2024/04/21 06:26:56;;;;;;;8.90;1.52;;;3.30;99.90;;;;;;5341909;26;20840;-71
2024/04/21 06:29:22;;;;;;;4.82;1.45;;;3.50;99.90;;;;;;5317622;26;20014;-71
2024/04/21 06:31:47;;;;;;;8.25;1.60;;;3.60;99.90;;;;;;5344843;26;20147;-72
2024/04/21 06:34:13;;;;;;;4.07;1.58;;;3.60;99.90;;;;;;5346008;26;20011;-71
2024/04/21 06:36:38;;;;;;;12.45;2.00;;;3.50;99.90;;;;;;5343808;26;20023;-71
2024/04/21 06:39:04;;;;;;;6.72;1.63;;;3.50;99.90;;;;;;5345978;26;20012;-72
2024/04/21 06:41:30;;;;;;;9.25;2.95;;;3.50;99.90;;;;;;5325740;26;20330;-71
2024/04/21 06:43:55;;;;;;;10.07;2.25;;;3.50;99.90;;;;;;5345726;26;20015;-72
2024/04/21 06:46:21;;;;;;;10.43;2.22;;;3.50;99.90;;;;;;5301270;26;20336;-73
2024/04/21 06:48:46;;;;;;;11.82;2.30;;;3.50;99.90;;;;;;5317678;26;20010;-71
2024/04/21 06:51:12;;;;;;;12.27;3.33;;;3.50;99.90;;;;;;5336662;26;20080;-76
2024/04/21 06:53:38;;;;;;;12.30;2.72;;;3.60;99.90;;;;;;5345399;26;20003;-73
2024/04/21 06:56:04;;;;;;;9.43;2.15;;;3.50;99.90;;;;;;5346182;26;20008;-73
2024/04/21 06:58:29;;;;;;;7.85;2.25;;;3.50;99.90;;;;;;5345579;26;20004;-74
2024/04/21 07:00:55;;;;;;;11.43;2.30;;;3.50;99.90;;;;;;5318379;26;20013;-71
2024/04/21 07:03:20;;;;;;;14.35;2.67;;;3.60;99.90;;;;;;5313837;26;20006;-71
2024/04/21 07:05:47;;;;;;;11.30;2.45;;;3.60;99.90;;;;;;5335324;26;20005;-72
2024/04/21 07:08:12;;;;;;;11.30;2.08;;;3.70;99.90;;;;;;5345134;26;20449;-73
2024/04/21 07:10:38;;;;;;;6.60;2.55;;;3.80;99.90;;;;;;5337179;26;20075;-72
2024/04/21 07:13:04;;;;;;;7.20;1.88;;;3.90;99.90;;;;;;5345505;26;19997;-73
2024/04/21 07:15:29;;;;;;;8.00;1.92;;;4.00;99.90;;;;;;5346146;26;20177;-73
2024/04/21 07:17:55;;;;;;;13.23;2.80;;;4.00;99.90;;;;;;5344852;26;20000;-73
2024/04/21 07:20:21;;;;;;;9.45;2.17;;;4.00;99.90;;;;;;5298608;26;20012;-74
2024/04/21 07:22:47;;;;;;;8.50;2.00;;;4.00;99.90;;;;;;5315312;26;20017;-73
2024/04/21 07:25:14;;;;;;;10.40;2.38;;;4.00;99.90;;;;;;5326803;26;20002;-75
2024/04/21 07:27:40;;;;;;;8.65;2.30;;;4.20;99.90;;;;;;5337332;26;20012;-73
2024/04/21 07:30:07;;;;;;;10.85;3.22;;;4.20;99.90;;;;;;5333039;26;20040;-75
2024/04/21 07:32:34;;;;;;;10.38;2.28;;;4.10;99.90;;;;;;5316553;26;20020;-71
2024/04/21 07:35:00;;;;;;;12.20;2.75;;;4.10;99.90;;;;;;5331921;26;20010;-74
2024/04/21 07:37:25;;;;;;;11.88;2.80;;;4.20;99.90;;;;;;5334050;26;20398;-73
2024/04/21 07:39:51;;;;;;;10.23;2.47;;;4.30;99.90;;;;;;5321836;26;20004;-76
2024/04/21 07:42:16;;;;;;;8.63;2.30;;;4.30;99.90;;;;;;5342885;26;20011;-75
2024/04/21 07:44:42;;;;;;;9.07;2.10;;;4.40;99.90;;;;;;5344946;26;20013;-74
2024/04/21 07:47:07;;;;;;;12.32;2.47;;;4.50;99.90;;;;;;5320742;26;20343;-75
2024/04/21 07:49:33;;;;;;;14.95;3.20;;;4.60;99.90;;;;;;5344598;26;19997;-73
2024/04/21 07:51:59;;;;;;;7.88;2.33;;;4.60;99.90;;;;;;5336394;26;21130;-76
2024/04/21 07:54:24;;;;;;;8.60;1.83;;;4.80;99.90;;;;;;5309324;26;20553;-73
2024/04/21 07:56:50;;;;;;;8.55;1.95;;;4.90;99.90;;;;;;5302953;26;20021;-77
2024/04/21 07:59:15;;;;;;;11.13;2.00;;;5.00;99.90;;;;;;5324668;26;20005;-76
2024/04/21 08:01:41;;;;;;;6.88;1.90;;;5.00;99.90;;;;;;5330925;26;20001;-73
2024/04/21 08:04:07;;;;;;;11.63;2.47;;;5.10;99.90;;;;;;5358101;26;20001;-75
2024/04/21 08:06:33;;;;;;;8.52;1.30;;;5.20;99.90;;;;;;5360279;26;19997;-77
2024/04/21 08:08:59;;;;;;;7.68;1.80;;;5.40;99.90;;;;;;5357035;26;20012;-76
2024/04/21 08:11:25;;;;;;;11.25;1.63;;;5.50;99.90;;;;;;5324977;26;20009;-76
2024/04/21 08:13:51;;;;;;;10.95;2.05;;;5.40;99.90;;;;;;5333875;26;20349;-77
2024/04/21 08:16:17;;;;;;;8.02;1.92;;;5.40;99.90;;;;;;5345742;26;20013;-83
2024/04/21 08:18:42;;;;;;;10.32;1.80;;;5.30;99.90;;;;;;5327281;26;19998;-82
2024/04/21 08:21:09;;;;;;;11.02;2.00;;;5.10;99.90;;;;;;5290848;26;20012;-77
2024/04/21 08:23:35;;;;;;;7.45;2.08;;;5.00;99.90;;;;;;5313932;26;20084;-78
2024/04/21 08:26:03;;;;;;;10.75;1.83;;;5.00;99.90;;;;;;5325374;26;20457;-82
2024/04/21 08:28:29;;;;;;;9.95;2.00;;;4.90;99.90;;;;;;5302515;26;20009;-80
2024/04/21 08:30:56;;;;;;;6.68;1.23;;;5.00;99.90;;;;;;5308599;26;20365;-83
2024/04/21 08:33:21;;;;;;;6.10;1.40;;;4.90;99.90;;;;;;5301210;26;20385;-80
2024/04/21 08:35:59;;;;;;;8.88;1.85;;;4.90;99.90;;;;;;5320744;26;20012;-79
2024/04/21 08:38:28;;;;;;;7.03;1.48;;;4.90;99.90;;;;;;5319170;26;19997;-79
2024/04/21 08:40:53;;;;;;;7.32;1.70;;;5.00;99.90;;;;;;5317468;26;20020;-80
2024/04/21 08:43:25;;;;;;;8.73;1.33;;;5.00;99.90;;;;;;5301674;26;20121;-80
2024/04/21 08:45:55;;;;;;;5.30;1.42;;;5.00;99.90;;;;;;5323268;26;20340;-80
2024/04/21 08:48:22;;;;;;;6.53;1.35;;;5.00;99.90;;;;;;5297991;26;20011;-80
2024/04/21 08:50:49;;;;;;;4.93;1.60;;;5.00;99.90;;;;;;5327266;26;20015;-81
2024/04/21 08:53:16;;;;;;;8.02;2.35;;;5.10;99.90;;;;;;5320149;26;20458;-81
2024/04/21 08:55:47;;;;;;;6.00;0.93;;;5.20;99.90;;;;;;5349599;26;20005;-83
2024/04/21 08:58:15;;;;;;;7.85;1.10;;;5.30;99.90;;;;;;5306045;26;20005;-83
2024/04/21 09:00:40;;;;;;;9.68;1.90;;;5.60;99.90;;;;;;5313895;26;20524;-84
2024/04/21 09:03:07;;;;;;;4.57;1.30;;;5.80;99.90;;;;;;5309667;26;20040;-81
2024/04/21 09:05:33;;;;;;;8.30;1.45;;;6.00;99.90;;;;;;5299697;26;20016;-83
2024/04/21 09:07:59;;;;;;;8.65;1.55;;;6.10;99.90;;;;;;5319101;26;20008;-82
2024/04/21 09:10:28;;;;;;;6.00;2.92;;;6.30;99.90;;;;;;5322211;26;20005;-83
2024/04/21 09:12:54;;;;;;;4.78;1.25;;;6.30;99.90;;;;;;5294823;26;20327;-85
2024/04/21 09:15:20;;;;;;;5.07;1.58;;;6.20;99.90;;;;;;5327215;26;20009;-84
2024/04/21 09:17:46;;;;;;;7.25;1.13;;;6.20;99.90;;;;;;5311787;26;20041;-80
2024/04/21 09:20:12;;;;;;;5.43;1.25;;;6.30;99.90;;;;;;5322836;26;20016;-82
2024/04/21 09:22:38;;;;;;;5.22;1.27;;;6.30;99.90;;;;;;5320779;26;20033;-86
2024/04/21 09:25:05;;;;;;;7.03;1.30;;;6.20;99.90;;;;;;5324241;26;20013;-84
2024/04/21 09:27:31;;;;;;;9.63;1.50;;;6.10;99.90;;;;;;5335595;26;20001;-83
2024/04/21 09:29:57;;;;;;;6.50;1.10;;;6.00;99.90;;;;;;5337046;26;20135;-85
2024/04/21 09:32:26;;;;;;;8.63;1.70;;;5.80;99.90;;;;;;5310258;26;19994;-86
2024/04/21 09:34:53;;;;;;;8.70;1.42;;;5.70;99.90;;;;;;5342442;26;19997;-84
2024/04/21 09:37:19;;;;;;;6.65;1.23;;;5.70;99.90;;;;;;5289253;26;20016;-84
2024/04/21 09:39:49;;;;;;;8.23;1.50;;;5.80;99.90;;;;;;5300338;26;20013;-85
2024/04/21 09:42:21;;;;;;;6.35;1.60;;;5.90;99.90;;;;;;5314687;26;20003;-86
2024/04/21 09:44:49;;;;;;;7.78;1.55;;;6.00;99.90;;;;;;5305943;26;20065;-85
2024/04/21 09:47:16;;;;;;;7.45;1.58;;;6.20;99.90;;;;;;5320226;26;20082;-83
2024/04/21 09:49:42;;;;;;;9.82;1.63;;;6.50;99.90;;;;;;5329761;26;20016;-84
2024/04/21 09:52:08;;;;;;;10.80;1.70;;;6.80;99.90;;;;;;5327471;26;19997;-77
2024/04/21 09:54:37;;;;;;;7.20;1.52;;;7.00;99.90;;;;;;5309120;26;20024;-75
2024/04/21 09:57:16;;;;;;;6.45;1.20;;;7.20;99.90;;;;;;5335995;26;20020;-81
2024/04/21 09:59:46;;;;;;;5.90;1.30;;;7.10;99.90;;;;;;5330943;26;20346;-85
2024/04/21 10:02:19;;;;;;;4.20;1.13;;;7.10;99.90;;;;;;5308433;26;20046;-85
2024/04/21 10:04:59;;;;;;;4.57;0.80;;;7.10;99.90;;;;;;5293803;26;20440;-83
2024/04/21 10:07:25;;;;;;;9.85;1.38;;;7.00;99.90;;;;;;5281400;27;20039;-83
2024/04/21 10:09:52;;;;;;;6.30;1.08;;;7.00;99.90;;;;;;5278528;27;20107;-78
2024/04/21 10:12:21;;;;;;;6.65;1.27;;;7.10;99.90;;;;;;5260483;27;20015;-77
2024/04/21 10:14:49;;;;;;;5.18;1.08;;;7.10;99.90;;;;;;5309314;27;20013;-76
2024/04/21 10:17:15;;;;;;;6.13;1.38;;;7.20;99.90;;;;;;5295988;27;20005;-75
2024/04/21 10:19:41;;;;;;;5.50;1.08;;;7.10;99.90;;;;;;5305342;27;20002;-74
2024/04/21 10:22:07;;;;;;;5.22;1.13;;;6.90;99.90;;;;;;5280973;27;20012;-74
2024/04/21 10:24:32;;;;;;;6.60;1.10;;;7.10;99.90;;;;;;5308122;27;20025;-77
2024/04/21 10:26:59;;;;;;;6.72;1.10;;;7.30;99.90;;;;;;5303420;27;20006;-73
2024/04/21 10:29:29;;;;;;;7.45;0.95;;;7.50;99.90;;;;;;5309872;27;20002;-79
2024/04/21 10:31:55;;;;;;;3.83;0.88;;;7.80;99.90;;;;;;5272884;27;20046;-76
2024/04/21 10:34:22;;;;;;;7.88;1.02;;;8.10;99.90;;;;;;5279798;27;19998;-77
2024/04/21 10:36:48;;;;;;;9.20;1.27;;;8.30;99.90;;;;;;5298067;27;20009;-76
2024/04/21 10:39:26;;;;;;;3.20;0.95;;;8.80;99.90;;;;;;5259338;27;20022;-74
2024/04/21 10:41:58;;;;;;;3.60;0.90;;;9.00;99.90;;;;;;5290286;27;20406;-76
2024/04/21 10:44:25;;;;;;;5.00;1.33;;;8.80;99.90;;;;;;5294178;27;20041;-73
2024/04/21 10:46:50;;;;;;;3.53;1.10;;;8.80;99.90;;;;;;5293783;27;20072;-76
2024/04/21 10:49:17;;;;;;;4.45;1.20;;;8.70;99.90;;;;;;5309641;27;20396;-75
2024/04/21 10:51:42;;;;;;;6.95;0.95;;;8.50;99.70;;;;;;5300528;27;20014;-75
2024/04/21 10:54:08;;;;;;;5.63;1.00;;;8.40;99.90;;;;;;5309844;27;20334;-76
2024/04/21 10:56:38;;;;;;;6.22;1.70;;;8.40;99.90;;;;;;5281810;27;20102;-73
2024/04/21 10:59:05;;;;;;;6.60;1.30;;;8.40;99.30;;;;;;5284420;27;20057;-74
2024/04/21 11:01:31;;;;;;;4.70;1.20;;;8.30;99.90;;;;;;5280319;27;20016;-74
2024/04/21 11:03:57;;;;;;;3.83;1.20;;;8.40;99.90;;;;;;5296539;27;20171;-73
2024/04/21 11:06:24;;;;;;;4.40;0.93;;;8.60;99.90;;;;;;5342085;26;20029;-73
2024/04/21 11:08:49;;;;;;;4.10;1.00;;;8.70;97.60;;;;;;5299920;26;20001;-74
2024/04/21 11:11:16;;;;;;;2.15;1.25;;;8.70;98.60;;;;;;5348337;26;20341;-75
2024/04/21 11:13:41;;;;;;;3.88;1.00;;;8.90;98.30;;;;;;5265462;27;20002;-77
2024/04/21 11:16:11;;;;;;;3.95;1.27;;;9.10;97.70;;;;;;5322960;26;20075;-75
2024/04/21 11:18:38;;;;;;;5.07;1.88;;;9.00;98.30;;;;;;5297924;26;20435;-78
2024/04/21 11:21:03;;;;;;;4.35;0.95;;;8.80;99.20;;;;;;5327348;26;20024;-79
2024/04/21 11:23:30;;;;;;;3.75;1.20;;;8.80;99.10;;;;;;5325423;26;20000;-77
2024/04/21 11:25:55;;;;;;;3.85;1.00;;;8.60;98.70;;;;;;5343276;26;20001;-79
2024/04/21 11:28:22;;;;;;;4.63;1.38;;;8.40;99.30;;;;;;5316578;26;19997;-79
2024/04/21 11:30:48;;;;;;;4.57;1.08;;;8.40;99.50;;;;;;5322588;26;20445;-74
2024/04/21 11:33:14;;;;;;;6.07;1.27;;;8.40;99.60;;;;;;5325566;26;20558;-74
2024/04/21 11:35:40;;;;;;;4.05;1.30;;;8.20;99.90;;;;;;5327743;26;19998;-74
2024/04/21 11:38:06;;;;;;;7.88;1.40;;;8.10;99.90;;;;;;5329093;26;20011;-79
2024/04/21 11:40:36;;;;;;;6.63;1.17;;;7.90;99.90;;;;;;5310470;26;20005;-73
2024/04/21 11:43:02;;;;;;;6.72;1.75;;;7.80;99.90;;;;;;5314461;26;20016;-78
2024/04/21 11:45:29;;;;;;;4.85;0.95;;;7.70;99.90;;;;;;5312757;26;20002;-79
2024/04/21 11:47:55;;;;;;;6.43;1.17;;;7.60;99.90;;;;;;5310818;26;20497;-74
2024/04/21 11:50:22;;;;;;;4.60;1.13;;;7.70;99.90;;;;;;5304465;26;20020;-77
2024/04/21 11:52:48;;;;;;;7.63;1.40;;;7.80;99.90;;;;;;5279774;27;20012;-79
2024/04/21 11:55:13;;;;;;;4.63;1.23;;;8.00;99.90;;;;;;5336524;26;20350;-72
2024/04/21 11:57:41;;;;;;;8.65;1.23;;;8.10;99.90;;;;;;5303162;26;20006;-91
2024/04/21 12:00:07;;;;;;;4.85;1.30;;;8.30;99.90;;;;;;5316874;26;20450;-85
2024/04/21 12:02:33;;;;;;;4.55;1.27;;;8.60;99.90;;;;;;5316091;26;20012;-84
2024/04/21 12:04:59;;;;;;;5.72;1.20;;;8.60;99.90;;;;;;5314943;26;20034;-77
2024/04/21 12:07:24;;;;;;;4.70;1.00;;;8.60;99.30;;;;;;5306558;26;20335;-77
2024/04/21 12:09:50;;;;;;;6.32;1.40;;;8.50;99.90;;;;;;5314468;26;20072;-74
2024/04/21 12:12:16;;;;;;;5.03;1.15;;;8.40;99.90;;;;;;5312305;26;20005;-75
2024/04/21 12:14:42;;;;;;;4.03;1.23;;;8.30;99.80;;;;;;5314587;26;20020;-75
2024/04/21 12:17:08;;;;;;;6.75;1.60;;;8.10;99.90;;;;;;5343234;26;20013;-76
2024/04/21 12:19:35;;;;;;;3.40;1.10;;;7.90;99.90;;;;;;5333752;26;19997;-76
2024/04/21 12:22:01;;;;;;;5.63;0.98;;;7.80;99.90;;;;;;5313863;26;20416;-75
2024/04/21 12:24:27;;;;;;;5.90;1.10;;;7.80;99.90;;;;;;5319280;26;20079;-73
2024/04/21 12:26:53;;;;;;;8.60;1.00;;;7.70;99.90;;;;;;5326280;26;20006;-73
2024/04/21 12:29:20;;;;;;;2.50;0.70;;;7.50;99.90;;;;;;5318967;26;20726;-76
2024/04/21 12:31:46;;;;;;;5.07;1.30;;;7.40;99.90;;;;;;5299579;26;19997;-75
2024/04/21 12:34:11;;;;;;;5.00;1.10;;;7.50;99.90;;;;;;5326462;26;20019;-76
2024/04/21 12:36:37;;;;;;;4.28;1.25;;;7.70;99.90;;;;;;5302330;26;20323;-75
2024/04/21 12:39:04;;;;;;;3.47;1.08;;;8.10;99.90;;;;;;5336823;26;19997;-73
2024/04/21 12:41:29;;;;;;;4.88;1.40;;;8.50;99.80;;;;;;5285998;26;20003;-75
2024/04/21 12:43:55;;;;;;;3.78;1.10;;;9.00;99.30;;;;;;5330867;26;20078;-74
2024/04/21 12:46:21;;;;;;;4.30;1.20;;;9.20;99.20;;;;;;5309591;26;20009;-75
2024/04/21 12:48:46;;;;;;;5.13;1.10;;;9.10;99.10;;;;;;5338830;26;20048;-74